Time;durP1;ratioP1;P1;durP2;ratioP2;P2;SDS_P1;SDS_P2;PMS_P1;PMS_P2;Temp;Humidity;BMP_temperature;BMP_pressure;BME280_temperature;BME280_humidity;BME280_pressure;Samples;Min_cycle;Max_cycle;Signal;HPM_P1;HPM_P2
2023/11/12 00:00:57;;;;;;;7.68;6.93;;;;;;;;;;2079439;28;20029;-75
2023/11/12 00:02:16;;;;;;;7.60;6.93;;;;;;;;;;2079197;28;20030;-75
2023/11/12 00:03:34;;;;;;;7.70;6.80;;;;;;;;;;2077720;28;20037;-75
2023/11/12 00:04:54;;;;;;;8.15;7.38;;;;;;;;;;2076332;28;20026;-75
2023/11/12 00:06:13;;;;;;;7.15;6.40;;;;;;;;;;2078697;28;20017;-75
2023/11/12 00:07:32;;;;;;;8.65;7.07;;;;;;;;;;2079707;28;20029;-77
2023/11/12 00:08:51;;;;;;;7.97;7.18;;;;;;;;;;2075548;28;20112;-75
2023/11/12 00:10:12;;;;;;;7.95;7.22;;;;;;;;;;2074223;28;20057;-75
2023/11/12 00:11:36;;;;;;;8.48;6.45;;;;;;;;;;2074539;28;20687;-76
2023/11/12 00:12:55;;;;;;;7.20;6.60;;;;;;;;;;2076061;28;20034;-76
2023/11/12 00:14:15;;;;;;;7.22;6.53;;;;;;;;;;2084152;28;20249;-75
2023/11/12 00:15:34;;;;;;;8.88;7.20;;;;;;;;;;2075001;28;20034;-75
2023/11/12 00:16:53;;;;;;;7.72;7.03;;;;;;;;;;2077200;28;20037;-76
2023/11/12 00:18:12;;;;;;;7.47;6.72;;;;;;;;;;2077028;28;20026;-78
2023/11/12 00:19:32;;;;;;;8.93;7.20;;;;;;;;;;2077640;28;20239;-77
2023/11/12 00:20:51;;;;;;;7.85;6.85;;;;;;;;;;2079718;28;20065;-77
2023/11/12 00:22:12;;;;;;;9.90;8.60;;;;;;;;;;2079318;28;20021;-76
2023/11/12 00:23:31;;;;;;;8.88;7.93;;;;;;;;;;2077796;28;20096;-76
2023/11/12 00:24:50;;;;;;;10.68;8.35;;;;;;;;;;2078218;28;20442;-75
2023/11/12 00:26:08;;;;;;;11.60;8.27;;;;;;;;;;2077828;28;20129;-73
2023/11/12 00:27:27;;;;;;;10.27;8.18;;;;;;;;;;2076316;28;20030;-73
2023/11/12 00:28:46;;;;;;;9.82;8.45;;;;;;;;;;2076698;28;20024;-73
2023/11/12 00:30:05;;;;;;;13.20;8.93;;;;;;;;;;2074994;28;21033;-73
2023/11/12 00:31:24;;;;;;;11.95;9.18;;;;;;;;;;2074785;28;20601;-75
2023/11/12 00:32:43;;;;;;;12.73;8.77;;;;;;;;;;2080400;28;20033;-75
2023/11/12 00:34:02;;;;;;;13.23;9.45;;;;;;;;;;2077466;28;20025;-75
2023/11/12 00:35:21;;;;;;;14.13;8.93;;;;;;;;;;2076895;28;20518;-75
2023/11/12 00:36:42;;;;;;;13.40;8.80;;;;;;;;;;2080150;28;20484;-74
2023/11/12 00:38:01;;;;;;;15.25;8.90;;;;;;;;;;2080330;28;20394;-75
2023/11/12 00:39:21;;;;;;;12.13;8.73;;;;;;;;;;2079709;28;20057;-75
2023/11/12 00:40:41;;;;;;;13.00;8.60;;;;;;;;;;2076956;28;21165;-76
2023/11/12 00:42:00;;;;;;;13.95;8.57;;;;;;;;;;2076995;28;20037;-74
2023/11/12 00:43:20;;;;;;;14.68;8.85;;;;;;;;;;2075780;28;20050;-76
2023/11/12 00:44:40;;;;;;;10.68;8.38;;;;;;;;;;2079444;28;20022;-74
2023/11/12 00:45:59;;;;;;;13.77;9.50;;;;;;;;;;2075480;28;20030;-75
2023/11/12 00:47:18;;;;;;;17.90;9.13;;;;;;;;;;2079301;28;20041;-75
2023/11/12 00:48:37;;;;;;;11.70;8.55;;;;;;;;;;2077767;28;20029;-75
2023/11/12 00:49:56;;;;;;;13.80;8.38;;;;;;;;;;2085291;28;20482;-75
2023/11/12 00:51:17;;;;;;;11.73;8.88;;;;;;;;;;2081915;28;20026;-74
2023/11/12 00:52:36;;;;;;;11.77;8.40;;;;;;;;;;2079280;28;20458;-74
2023/11/12 00:53:55;;;;;;;10.63;8.88;;;;;;;;;;2077729;28;20041;-74
2023/11/12 00:55:14;;;;;;;9.77;8.48;;;;;;;;;;2076681;28;20116;-75
2023/11/12 00:56:33;;;;;;;13.05;8.40;;;;;;;;;;2074485;28;20034;-75
2023/11/12 00:57:52;;;;;;;11.00;8.75;;;;;;;;;;2076077;28;20104;-76
2023/11/12 00:59:11;;;;;;;11.85;9.00;;;;;;;;;;2079146;28;20490;-75
2023/11/12 01:00:31;;;;;;;10.68;8.38;;;;;;;;;;2079962;28;20091;-75
2023/11/12 01:01:50;;;;;;;11.77;9.00;;;;;;;;;;2076631;28;20021;-75
2023/11/12 01:03:09;;;;;;;10.98;8.63;;;;;;;;;;2077730;28;20479;-75
2023/11/12 01:04:28;;;;;;;11.82;8.77;;;;;;;;;;2077352;28;20029;-75
2023/11/12 01:05:48;;;;;;;11.30;8.35;;;;;;;;;;2079638;28;20395;-75
2023/11/12 01:07:06;;;;;;;13.20;8.38;;;;;;;;;;2079948;28;20399;-75
2023/11/12 01:08:25;;;;;;;9.43;8.10;;;;;;;;;;2078784;28;20037;-74
2023/11/12 01:09:46;;;;;;;11.13;8.60;;;;;;;;;;2078466;28;20491;-75
2023/11/12 01:11:05;;;;;;;8.68;7.78;;;;;;;;;;2076871;28;20057;-74
2023/11/12 01:12:24;;;;;;;11.98;7.60;;;;;;;;;;2080426;28;20127;-74
2023/11/12 01:13:43;;;;;;;7.60;7.00;;;;;;;;;;2079963;28;20443;-74
2023/11/12 01:15:02;;;;;;;10.88;7.85;;;;;;;;;;2078265;28;20053;-74
2023/11/12 01:16:21;;;;;;;11.25;8.63;;;;;;;;;;2079695;28;20018;-75
2023/11/12 01:17:42;;;;;;;10.27;8.80;;;;;;;;;;2080718;28;20030;-75
2023/11/12 01:19:01;;;;;;;10.85;8.95;;;;;;;;;;2081345;28;20459;-75
2023/11/12 01:20:21;;;;;;;14.45;9.18;;;;;;;;;;2078294;28;20029;-74
2023/11/12 01:21:40;;;;;;;10.07;8.48;;;;;;;;;;2075608;28;20473;-76
2023/11/12 01:22:59;;;;;;;11.68;9.02;;;;;;;;;;2094646;28;20033;-74
2023/11/12 01:24:18;;;;;;;15.82;9.40;;;;;;;;;;2091265;28;20017;-75
2023/11/12 01:25:37;;;;;;;17.08;10.38;;;;;;;;;;2088007;28;20014;-77
2023/11/12 01:26:56;;;;;;;11.80;8.55;;;;;;;;;;2085551;28;20025;-78
2023/11/12 01:28:15;;;;;;;12.60;9.55;;;;;;;;;;2078915;28;20037;-77
2023/11/12 01:29:33;;;;;;;15.27;9.60;;;;;;;;;;2080934;28;20029;-75
2023/11/12 01:30:52;;;;;;;16.23;10.02;;;;;;;;;;2080336;28;20022;-74
2023/11/12 01:32:11;;;;;;;14.63;9.27;;;;;;;;;;2080601;28;20225;-74
2023/11/12 01:33:30;;;;;;;13.60;9.32;;;;;;;;;;2087290;28;20014;-74
2023/11/12 01:34:51;;;;;;;17.00;9.55;;;;;;;;;;2085079;28;20010;-77
2023/11/12 01:36:11;;;;;;;12.50;9.55;;;;;;;;;;2088029;28;20022;-75
2023/11/12 01:37:30;;;;;;;10.20;8.50;;;;;;;;;;2088810;28;20033;-78
2023/11/12 01:38:49;;;;;;;13.40;8.75;;;;;;;;;;2082330;28;20081;-76
2023/11/12 01:40:08;;;;;;;14.07;8.25;;;;;;;;;;2080897;28;20025;-75
2023/11/12 01:41:27;;;;;;;9.15;7.95;;;;;;;;;;2077063;28;20516;-76
2023/11/12 01:42:46;;;;;;;10.98;7.65;;;;;;;;;;2074773;28;20033;-75
2023/11/12 01:44:05;;;;;;;9.60;8.43;;;;;;;;;;2079202;28;20041;-74
2023/11/12 01:45:24;;;;;;;11.63;8.98;;;;;;;;;;2076761;28;20425;-75
2023/11/12 01:46:43;;;;;;;11.50;8.57;;;;;;;;;;2076758;28;20029;-74
2023/11/12 01:48:03;;;;;;;12.25;9.00;;;;;;;;;;2078175;28;20602;-75
2023/11/12 01:49:22;;;;;;;9.43;8.45;;;;;;;;;;2077740;28;20033;-74
2023/11/12 01:50:42;;;;;;;13.10;9.05;;;;;;;;;;2079134;28;20041;-74
2023/11/12 01:52:02;;;;;;;12.02;8.48;;;;;;;;;;2074595;28;20037;-76
2023/11/12 01:53:21;;;;;;;8.88;7.97;;;;;;;;;;2073779;28;20120;-74
2023/11/12 01:54:40;;;;;;;10.80;7.53;;;;;;;;;;2075328;28;20108;-75
2023/11/12 01:56:00;;;;;;;7.68;6.90;;;;;;;;;;2078245;28;20034;-74
2023/11/12 01:57:19;;;;;;;8.95;7.20;;;;;;;;;;2077614;28;20034;-77
2023/11/12 01:58:39;;;;;;;7.90;7.15;;;;;;;;;;2079223;28;20115;-74
2023/11/12 01:59:58;;;;;;;8.43;7.55;;;;;;;;;;2075106;28;20026;-74
2023/11/12 02:01:17;;;;;;;8.10;7.30;;;;;;;;;;2078410;28;20026;-78
2023/11/12 02:02:37;;;;;;;9.18;6.80;;;;;;;;;;2078076;28;20017;-74
2023/11/12 02:03:56;;;;;;;7.45;6.82;;;;;;;;;;2078255;28;20030;-74
2023/11/12 02:05:15;;;;;;;7.32;6.60;;;;;;;;;;2077724;28;20026;-74
2023/11/12 02:06:34;;;;;;;7.40;6.80;;;;;;;;;;2076066;28;20037;-76
2023/11/12 02:07:53;;;;;;;6.88;6.15;;;;;;;;;;2074177;28;20029;-75
2023/11/12 02:09:12;;;;;;;7.45;6.28;;;;;;;;;;2074731;28;20561;-74
2023/11/12 02:10:35;;;;;;;6.18;5.65;;;;;;;;;;2077379;28;20033;-74
2023/11/12 02:11:55;;;;;;;5.32;4.82;;;;;;;;;;2077410;28;20029;-75
2023/11/12 02:13:14;;;;;;;5.15;4.60;;;;;;;;;;2078252;28;20037;-75
2023/11/12 02:14:33;;;;;;;5.25;4.90;;;;;;;;;;2077717;28;20030;-74
2023/11/12 02:15:53;;;;;;;5.80;5.20;;;;;;;;;;2076873;28;20037;-74
2023/11/12 02:17:12;;;;;;;5.03;4.63;;;;;;;;;;2075570;28;20021;-74
2023/11/12 02:18:31;;;;;;;6.70;4.38;;;;;;;;;;2078313;28;20037;-75
2023/11/12 02:19:50;;;;;;;5.47;4.72;;;;;;;;;;2078706;28;20033;-76
2023/11/12 02:21:09;;;;;;;7.07;5.15;;;;;;;;;;2078943;28;20029;-75
2023/11/12 02:22:28;;;;;;;4.78;4.38;;;;;;;;;;2079192;28;20022;-74
2023/11/12 02:23:47;;;;;;;5.47;5.00;;;;;;;;;;2075073;28;20026;-74
2023/11/12 02:25:06;;;;;;;5.18;4.80;;;;;;;;;;2076336;28;20049;-74
2023/11/12 02:26:26;;;;;;;4.63;4.22;;;;;;;;;;2077779;28;20037;-76
2023/11/12 02:27:45;;;;;;;4.53;3.92;;;;;;;;;;2076008;28;20021;-75
2023/11/12 02:29:07;;;;;;;4.78;4.38;;;;;;;;;;2076790;28;20030;-74
2023/11/12 02:30:26;;;;;;;4.28;3.97;;;;;;;;;;2075513;28;20449;-74
2023/11/12 02:31:45;;;;;;;4.50;3.92;;;;;;;;;;2075845;28;20053;-76
2023/11/12 02:33:05;;;;;;;4.40;4.00;;;;;;;;;;2077173;28;20022;-75
2023/11/12 02:34:24;;;;;;;4.05;3.75;;;;;;;;;;2079230;28;20426;-74
2023/11/12 02:35:45;;;;;;;4.05;3.75;;;;;;;;;;2075455;28;20507;-75
2023/11/12 02:37:04;;;;;;;2.80;2.60;;;;;;;;;;2077890;28;20025;-75
2023/11/12 02:38:24;;;;;;;3.50;3.20;;;;;;;;;;2078617;28;20037;-75
2023/11/12 02:39:43;;;;;;;3.38;3.17;;;;;;;;;;2079324;28;20033;-75
2023/11/12 02:41:02;;;;;;;3.33;3.13;;;;;;;;;;2077958;28;20108;-74
2023/11/12 02:42:22;;;;;;;3.28;3.08;;;;;;;;;;2077388;28;20026;-75
2023/11/12 02:43:41;;;;;;;4.25;2.72;;;;;;;;;;2079938;28;20042;-75
2023/11/12 02:45:00;;;;;;;3.47;3.28;;;;;;;;;;2078579;28;20030;-75
2023/11/12 02:46:20;;;;;;;3.00;2.80;;;;;;;;;;2077669;28;20022;-74
2023/11/12 02:47:41;;;;;;;2.80;2.60;;;;;;;;;;2079478;28;20096;-76
2023/11/12 02:49:03;;;;;;;2.85;2.65;;;;;;;;;;2074504;28;20524;-74
2023/11/12 02:50:27;;;;;;;2.58;2.38;;;;;;;;;;2075256;28;20032;-74
2023/11/12 02:51:46;;;;;;;2.50;2.30;;;;;;;;;;2075345;28;20064;-75
2023/11/12 02:53:07;;;;;;;6.05;2.72;;;;;;;;;;2078330;28;20034;-76
2023/11/12 02:54:26;;;;;;;3.13;2.33;;;;;;;;;;2077197;28;20034;-74
2023/11/12 02:55:45;;;;;;;2.50;2.30;;;;;;;;;;2074931;28;20042;-75
2023/11/12 02:57:04;;;;;;;1.92;1.77;;;;;;;;;;2078302;28;20033;-75
2023/11/12 02:58:22;;;;;;;5.85;2.00;;;;;;;;;;2077568;28;20057;-76
2023/11/12 02:59:41;;;;;;;1.80;1.70;;;;;;;;;;2068552;28;20038;-76
2023/11/12 03:01:01;;;;;;;1.90;1.80;;;;;;;;;;2072101;28;20026;-78
2023/11/12 03:02:22;;;;;;;1.70;1.60;;;;;;;;;;2077472;28;20419;-75
2023/11/12 03:03:41;;;;;;;1.70;1.60;;;;;;;;;;2085009;28;20024;-75
2023/11/12 03:05:01;;;;;;;1.70;1.60;;;;;;;;;;2078389;28;20025;-74
2023/11/12 03:06:20;;;;;;;1.40;1.30;;;;;;;;;;2076928;28;20030;-74
2023/11/12 03:07:40;;;;;;;1.75;1.65;;;;;;;;;;2078145;28;20041;-73
2023/11/12 03:08:59;;;;;;;1.75;1.45;;;;;;;;;;2076154;28;20038;-74
2023/11/12 03:10:18;;;;;;;1.38;1.30;;;;;;;;;;2074801;28;20037;-75
2023/11/12 03:11:37;;;;;;;1.45;1.35;;;;;;;;;;2079190;28;20057;-73
2023/11/12 03:12:57;;;;;;;1.48;1.38;;;;;;;;;;2075705;28;20417;-73
2023/11/12 03:14:17;;;;;;;2.47;1.40;;;;;;;;;;2077835;28;20037;-73
2023/11/12 03:15:36;;;;;;;1.40;1.30;;;;;;;;;;2077768;28;20034;-73
2023/11/12 03:16:55;;;;;;;1.30;1.20;;;;;;;;;;2077554;28;20034;-74
2023/11/12 03:18:14;;;;;;;1.40;1.33;;;;;;;;;;2074008;28;20034;-74
2023/11/12 03:19:34;;;;;;;1.60;1.33;;;;;;;;;;2079428;28;20030;-74
2023/11/12 03:20:53;;;;;;;1.40;1.30;;;;;;;;;;2074915;28;20026;-74
2023/11/12 03:22:12;;;;;;;1.40;1.30;;;;;;;;;;2078781;28;20022;-73
2023/11/12 03:23:31;;;;;;;2.17;1.50;;;;;;;;;;2079194;28;20030;-76
2023/11/12 03:24:50;;;;;;;1.40;1.30;;;;;;;;;;2079575;28;20021;-73
2023/11/12 03:26:10;;;;;;;1.33;1.20;;;;;;;;;;2079181;28;20017;-74
2023/11/12 03:27:29;;;;;;;1.58;1.48;;;;;;;;;;2077444;28;20286;-74
2023/11/12 03:28:48;;;;;;;1.48;1.38;;;;;;;;;;2075107;28;20417;-74
2023/11/12 03:30:09;;;;;;;1.20;1.20;;;;;;;;;;2078721;28;20108;-76
2023/11/12 03:31:28;;;;;;;1.20;1.10;;;;;;;;;;2078570;28;20037;-74
2023/11/12 03:32:47;;;;;;;2.10;1.23;;;;;;;;;;2078408;28;20030;-74
2023/11/12 03:34:06;;;;;;;1.10;1.00;;;;;;;;;;2076798;28;20033;-73
2023/11/12 03:35:25;;;;;;;2.35;1.40;;;;;;;;;;2075748;28;20042;-74
2023/11/12 03:36:43;;;;;;;2.78;1.92;;;;;;;;;;2078954;28;20037;-74
2023/11/12 03:38:02;;;;;;;1.60;1.50;;;;;;;;;;2079796;28;20029;-74
2023/11/12 03:39:22;;;;;;;1.50;1.40;;;;;;;;;;2076699;28;20438;-74
2023/11/12 03:40:41;;;;;;;1.08;1.02;;;;;;;;;;2080893;28;20505;-77
2023/11/12 03:42:01;;;;;;;0.90;0.90;;;;;;;;;;2090086;28;20033;-74
2023/11/12 03:43:20;;;;;;;0.90;0.90;;;;;;;;;;2093255;28;20041;-77
2023/11/12 03:44:39;;;;;;;1.40;0.90;;;;;;;;;;2087504;28;20022;-78
2023/11/12 03:45:58;;;;;;;0.98;0.98;;;;;;;;;;2085790;28;20029;-75
2023/11/12 03:47:19;;;;;;;1.13;0.80;;;;;;;;;;2085633;28;20029;-74
2023/11/12 03:48:39;;;;;;;1.30;1.20;;;;;;;;;;2086929;28;20017;-75
2023/11/12 03:49:58;;;;;;;1.38;1.00;;;;;;;;;;2082076;28;20022;-74
2023/11/12 03:51:17;;;;;;;2.25;1.20;;;;;;;;;;2082564;28;20124;-74
2023/11/12 03:52:36;;;;;;;1.10;1.00;;;;;;;;;;2078378;28;20446;-75
2023/11/12 03:53:55;;;;;;;0.80;0.80;;;;;;;;;;2076645;28;20030;-74
2023/11/12 03:55:17;;;;;;;1.15;1.05;;;;;;;;;;2074974;28;20112;-74
2023/11/12 03:56:36;;;;;;;1.98;0.80;;;;;;;;;;2079669;28;20034;-75
2023/11/12 03:57:55;;;;;;;0.88;0.80;;;;;;;;;;2078122;28;20069;-73
2023/11/12 03:59:17;;;;;;;0.77;0.77;;;;;;;;;;2080277;28;20029;-75
2023/11/12 04:00:36;;;;;;;0.80;0.80;;;;;;;;;;2077221;28;20190;-74
2023/11/12 04:01:55;;;;;;;0.60;0.60;;;;;;;;;;2080823;28;20030;-74
2023/11/12 04:03:15;;;;;;;1.95;0.70;;;;;;;;;;2079676;28;20021;-75
2023/11/12 04:04:35;;;;;;;1.73;1.10;;;;;;;;;;2081093;28;20112;-76
2023/11/12 04:05:54;;;;;;;0.60;0.60;;;;;;;;;;2077287;28;20514;-75
2023/11/12 04:07:13;;;;;;;0.73;0.73;;;;;;;;;;2076816;28;20470;-76
2023/11/12 04:08:32;;;;;;;0.77;0.77;;;;;;;;;;2078825;28;20433;-75
2023/11/12 04:09:51;;;;;;;2.72;0.90;;;;;;;;;;2077952;28;20460;-75
2023/11/12 04:11:12;;;;;;;1.65;0.90;;;;;;;;;;2076662;28;20026;-75
2023/11/12 04:12:33;;;;;;;0.80;0.80;;;;;;;;;;2081813;28;20030;-77
2023/11/12 04:13:52;;;;;;;1.33;1.23;;;;;;;;;;2078984;28;20049;-75
2023/11/12 04:15:11;;;;;;;2.85;1.15;;;;;;;;;;2075086;28;20053;-75
2023/11/12 04:16:30;;;;;;;3.05;1.30;;;;;;;;;;2073274;28;20117;-75
2023/11/12 04:17:50;;;;;;;1.48;0.95;;;;;;;;;;2076754;28;20494;-74
2023/11/12 04:19:09;;;;;;;2.78;1.40;;;;;;;;;;2081728;28;20108;-74
2023/11/12 04:20:30;;;;;;;3.28;1.83;;;;;;;;;;2080671;28;20053;-75
2023/11/12 04:21:49;;;;;;;1.35;1.30;;;;;;;;;;2079756;28;20456;-77
2023/11/12 04:23:08;;;;;;;1.88;1.40;;;;;;;;;;2080782;28;20017;-75
2023/11/12 04:24:26;;;;;;;1.42;1.33;;;;;;;;;;2081476;28;20030;-75
2023/11/12 04:25:47;;;;;;;1.85;1.35;;;;;;;;;;2081366;28;20025;-75
2023/11/12 04:27:07;;;;;;;1.33;1.30;;;;;;;;;;2080350;28;20030;-75
2023/11/12 04:28:28;;;;;;;2.45;1.40;;;;;;;;;;2079198;28;20487;-75
2023/11/12 04:29:47;;;;;;;1.50;1.40;;;;;;;;;;2079811;28;20097;-75
2023/11/12 04:31:06;;;;;;;1.40;1.30;;;;;;;;;;2079564;28;20026;-75
2023/11/12 04:32:26;;;;;;;2.45;1.30;;;;;;;;;;2080909;28;20026;-74
2023/11/12 04:33:47;;;;;;;1.50;1.35;;;;;;;;;;2078797;28;20029;-75
2023/11/12 04:35:06;;;;;;;2.35;1.40;;;;;;;;;;2076335;28;20022;-78
2023/11/12 04:36:27;;;;;;;1.30;1.20;;;;;;;;;;2078350;28;20164;-75
2023/11/12 04:37:46;;;;;;;1.10;1.00;;;;;;;;;;2079938;28;20026;-76
2023/11/12 04:39:07;;;;;;;1.25;1.15;;;;;;;;;;2079860;28;20598;-76
2023/11/12 04:40:26;;;;;;;1.40;1.30;;;;;;;;;;2078313;28;20030;-75
2023/11/12 04:41:45;;;;;;;1.40;1.30;;;;;;;;;;2076247;28;20034;-76
2023/11/12 04:43:05;;;;;;;0.95;0.95;;;;;;;;;;2079510;28;20030;-76
2023/11/12 04:44:25;;;;;;;1.95;1.58;;;;;;;;;;2081109;28;20490;-75
2023/11/12 04:45:47;;;;;;;2.05;1.20;;;;;;;;;;2082197;28;20029;-76
2023/11/12 04:47:06;;;;;;;1.40;1.30;;;;;;;;;;2081038;28;20025;-75
2023/11/12 04:48:25;;;;;;;1.27;1.10;;;;;;;;;;2080642;28;20029;-75
2023/11/12 04:49:44;;;;;;;4.68;1.52;;;;;;;;;;2080098;28;20374;-75
2023/11/12 04:51:05;;;;;;;1.38;1.20;;;;;;;;;;2079871;28;20033;-75
2023/11/12 04:52:25;;;;;;;1.23;1.23;;;;;;;;;;2079781;28;20025;-76
2023/11/12 04:53:43;;;;;;;2.55;1.30;;;;;;;;;;2078073;28;20065;-75
2023/11/12 04:55:02;;;;;;;1.20;1.15;;;;;;;;;;2077890;28;20022;-76
2023/11/12 04:56:21;;;;;;;1.52;1.42;;;;;;;;;;2080024;28;20026;-75
2023/11/12 04:57:40;;;;;;;30.73;3.05;;;;;;;;;;2079357;28;20505;-75
2023/11/12 04:58:59;;;;;;;1.80;1.70;;;;;;;;;;2077509;28;20037;-74
2023/11/12 05:00:19;;;;;;;3.28;1.33;;;;;;;;;;2080216;28;20033;-74
2023/11/12 05:01:38;;;;;;;3.15;1.38;;;;;;;;;;2079936;28;20502;-76
2023/11/12 05:02:57;;;;;;;1.67;1.50;;;;;;;;;;2080753;28;20029;-74
2023/11/12 05:04:16;;;;;;;1.40;1.30;;;;;;;;;;2078938;28;20053;-75
2023/11/12 05:05:36;;;;;;;1.33;1.23;;;;;;;;;;2078542;28;20049;-78
2023/11/12 05:06:54;;;;;;;1.20;1.20;;;;;;;;;;2079639;28;20037;-75
2023/11/12 05:08:13;;;;;;;1.40;1.30;;;;;;;;;;2081733;28;20030;-76
2023/11/12 05:09:32;;;;;;;1.55;1.45;;;;;;;;;;2079639;28;20045;-75
2023/11/12 05:10:52;;;;;;;1.42;1.15;;;;;;;;;;2078582;28;20569;-75
2023/11/12 05:12:11;;;;;;;1.20;1.20;;;;;;;;;;2078699;28;20108;-75
2023/11/12 05:13:30;;;;;;;1.02;1.00;;;;;;;;;;2078482;28;20026;-76
2023/11/12 05:14:49;;;;;;;1.40;1.30;;;;;;;;;;2076742;28;20041;-75
2023/11/12 05:16:07;;;;;;;1.67;1.58;;;;;;;;;;2079349;28;20124;-75
2023/11/12 05:17:26;;;;;;;1.80;1.27;;;;;;;;;;2078514;28;20030;-75
2023/11/12 05:18:46;;;;;;;3.42;1.25;;;;;;;;;;2077626;28;20037;-76
2023/11/12 05:20:05;;;;;;;1.88;1.50;;;;;;;;;;2074080;28;20030;-75
2023/11/12 05:21:24;;;;;;;1.48;1.38;;;;;;;;;;2077208;28;20041;-78
2023/11/12 05:22:42;;;;;;;1.55;1.20;;;;;;;;;;2074958;28;20025;-77
2023/11/12 05:24:02;;;;;;;1.33;1.23;;;;;;;;;;2075881;28;20870;-75
2023/11/12 05:25:22;;;;;;;1.40;1.30;;;;;;;;;;2076274;28;20105;-76
2023/11/12 05:26:41;;;;;;;1.70;1.25;;;;;;;;;;2074186;28;20025;-75
2023/11/12 05:28:01;;;;;;;2.33;1.15;;;;;;;;;;2077382;28;20033;-76
2023/11/12 05:29:19;;;;;;;2.20;1.02;;;;;;;;;;2079174;28;20034;-75
2023/11/12 05:30:39;;;;;;;1.50;1.40;;;;;;;;;;2079752;28;20569;-75
2023/11/12 05:31:57;;;;;;;2.50;1.55;;;;;;;;;;2078010;28;20121;-75
2023/11/12 05:33:16;;;;;;;1.63;1.52;;;;;;;;;;2073371;28;20112;-75
2023/11/12 05:34:35;;;;;;;1.92;1.70;;;;;;;;;;2079274;28;20478;-75
2023/11/12 05:35:54;;;;;;;1.52;1.40;;;;;;;;;;2078220;28;20069;-76
2023/11/12 05:37:13;;;;;;;1.85;1.75;;;;;;;;;;2079622;28;20044;-75
2023/11/12 05:38:33;;;;;;;4.78;1.77;;;;;;;;;;2076014;28;20108;-76
2023/11/12 05:39:53;;;;;;;5.93;1.67;;;;;;;;;;2080227;28;20037;-78
2023/11/12 05:41:12;;;;;;;2.50;1.77;;;;;;;;;;2078894;28;20021;-76
2023/11/12 05:42:32;;;;;;;2.53;1.75;;;;;;;;;;2077365;28;20021;-76
2023/11/12 05:43:51;;;;;;;2.00;1.90;;;;;;;;;;2078088;28;20045;-78
2023/11/12 05:45:10;;;;;;;3.15;1.88;;;;;;;;;;2079328;28;20096;-75
2023/11/12 05:46:29;;;;;;;2.83;1.98;;;;;;;;;;2081342;28;20030;-75
2023/11/12 05:47:48;;;;;;;4.72;2.17;;;;;;;;;;2080005;28;20061;-75
2023/11/12 05:49:07;;;;;;;2.85;1.90;;;;;;;;;;2080332;28;20436;-76
2023/11/12 05:50:26;;;;;;;2.00;1.90;;;;;;;;;;2078730;28;20034;-75
2023/11/12 05:51:45;;;;;;;3.60;1.67;;;;;;;;;;2079143;28;20508;-75
2023/11/12 05:53:03;;;;;;;1.92;1.50;;;;;;;;;;2080161;28;20084;-74
2023/11/12 05:54:22;;;;;;;2.28;1.75;;;;;;;;;;2079843;28;20025;-77
2023/11/12 05:55:41;;;;;;;4.22;1.67;;;;;;;;;;2079798;28;20033;-76
2023/11/12 05:57:00;;;;;;;1.92;1.65;;;;;;;;;;2077499;28;20486;-77
2023/11/12 05:58:19;;;;;;;3.80;1.55;;;;;;;;;;2078316;28;20419;-76
2023/11/12 05:59:38;;;;;;;2.47;1.75;;;;;;;;;;2077955;28;20117;-78
2023/11/12 06:00:59;;;;;;;3.88;1.40;;;;;;;;;;2079898;28;20026;-76
2023/11/12 06:02:18;;;;;;;2.42;1.40;;;;;;;;;;2078215;28;20022;-77
2023/11/12 06:03:37;;;;;;;1.80;1.20;;;;;;;;;;2077923;28;20514;-77
2023/11/12 06:04:57;;;;;;;2.33;1.48;;;;;;;;;;2078862;28;20025;-75
2023/11/12 06:06:16;;;;;;;6.15;1.67;;;;;;;;;;2079798;28;20025;-78
2023/11/12 06:07:35;;;;;;;3.08;1.60;;;;;;;;;;2076010;28;20033;-76
2023/11/12 06:08:56;;;;;;;1.92;1.73;;;;;;;;;;2079395;28;20030;-76
2023/11/12 06:10:15;;;;;;;2.03;1.40;;;;;;;;;;2078354;28;20036;-76
2023/11/12 06:11:37;;;;;;;1.98;1.70;;;;;;;;;;2078029;28;20112;-76
2023/11/12 06:12:56;;;;;;;1.52;1.40;;;;;;;;;;2078878;28;20403;-76
2023/11/12 06:14:16;;;;;;;3.13;1.67;;;;;;;;;;2077315;28;20037;-76
2023/11/12 06:15:35;;;;;;;2.42;1.50;;;;;;;;;;2078936;28;20065;-76
2023/11/12 06:16:53;;;;;;;1.52;1.42;;;;;;;;;;2076316;28;20119;-77
2023/11/12 06:18:12;;;;;;;1.40;1.30;;;;;;;;;;2079567;28;20026;-76
2023/11/12 06:19:32;;;;;;;4.68;1.80;;;;;;;;;;2074275;28;20108;-75
2023/11/12 06:20:50;;;;;;;2.47;1.70;;;;;;;;;;2077104;28;20643;-76
2023/11/12 06:22:09;;;;;;;3.33;1.65;;;;;;;;;;2077691;28;20026;-76
2023/11/12 06:23:28;;;;;;;3.00;1.60;;;;;;;;;;2079105;28;20025;-76
2023/11/12 06:24:47;;;;;;;1.77;1.67;;;;;;;;;;2078733;28;20029;-76
2023/11/12 06:26:06;;;;;;;1.55;1.30;;;;;;;;;;2076345;28;20025;-76
2023/11/12 06:27:25;;;;;;;2.10;1.90;;;;;;;;;;2076774;28;20950;-77
2023/11/12 06:28:44;;;;;;;1.52;1.30;;;;;;;;;;2079621;28;20022;-76
2023/11/12 06:30:04;;;;;;;1.85;1.75;;;;;;;;;;2078326;28;20104;-76
2023/11/12 06:31:23;;;;;;;3.45;1.73;;;;;;;;;;2075750;28;20026;-76
2023/11/12 06:32:48;;;;;;;1.65;1.33;;;;;;;;;;2078171;28;20026;-76
2023/11/12 06:34:07;;;;;;;1.60;1.50;;;;;;;;;;2080320;28;20056;-76
2023/11/12 06:35:26;;;;;;;2.72;1.70;;;;;;;;;;2079146;28;20117;-75
2023/11/12 06:36:45;;;;;;;1.65;1.48;;;;;;;;;;2077669;28;20490;-76
2023/11/12 06:38:04;;;;;;;2.97;1.80;;;;;;;;;;2078396;28;20030;-76
2023/11/12 06:39:23;;;;;;;1.90;1.80;;;;;;;;;;2078886;28;20038;-77
2023/11/12 06:40:42;;;;;;;1.75;1.52;;;;;;;;;;2077692;28;20021;-76
2023/11/12 06:42:01;;;;;;;2.10;1.80;;;;;;;;;;2078969;28;20474;-76
2023/11/12 06:43:20;;;;;;;1.83;1.67;;;;;;;;;;2079335;28;20037;-75
2023/11/12 06:44:39;;;;;;;2.38;1.95;;;;;;;;;;2079966;28;20021;-78
2023/11/12 06:45:58;;;;;;;2.28;1.77;;;;;;;;;;2077116;28;20062;-76
2023/11/12 06:47:18;;;;;;;1.58;1.48;;;;;;;;;;2079167;28;20014;-76
2023/11/12 06:48:37;;;;;;;2.03;1.83;;;;;;;;;;2079091;28;20021;-78
2023/11/12 06:49:56;;;;;;;3.10;1.85;;;;;;;;;;2077697;28;20653;-76
2023/11/12 06:51:23;;;;;;;2.35;1.27;;;;;;;;;;2074609;28;20022;-77
2023/11/12 06:52:42;;;;;;;1.45;1.35;;;;;;;;;;2078255;28;20397;-76
2023/11/12 06:54:01;;;;;;;1.27;1.17;;;;;;;;;;2077510;28;20398;-76
2023/11/12 06:55:20;;;;;;;2.65;1.25;;;;;;;;;;2078580;28;20463;-76
2023/11/12 06:56:39;;;;;;;1.67;1.20;;;;;;;;;;2077005;28;20526;-76
2023/11/12 06:57:58;;;;;;;4.43;1.38;;;;;;;;;;2078524;28;20042;-76
2023/11/12 06:59:17;;;;;;;1.20;1.10;;;;;;;;;;2076170;28;20022;-77
2023/11/12 07:00:36;;;;;;;1.00;1.00;;;;;;;;;;2079218;28;20030;-76
2023/11/12 07:01:55;;;;;;;1.13;1.10;;;;;;;;;;2078385;28;20025;-77
2023/11/12 07:03:14;;;;;;;1.35;1.27;;;;;;;;;;2078921;28;20462;-76
2023/11/12 07:04:33;;;;;;;2.72;1.00;;;;;;;;;;2075556;28;20037;-76
2023/11/12 07:05:52;;;;;;;1.30;1.20;;;;;;;;;;2078759;28;20022;-76
2023/11/12 07:07:12;;;;;;;1.83;1.30;;;;;;;;;;2076270;28;20033;-76
2023/11/12 07:08:32;;;;;;;2.05;1.13;;;;;;;;;;2076044;28;20478;-78
2023/11/12 07:09:51;;;;;;;1.40;1.30;;;;;;;;;;2078779;28;20034;-75
2023/11/12 07:11:10;;;;;;;1.58;1.25;;;;;;;;;;2079897;28;20018;-77
2023/11/12 07:12:30;;;;;;;2.63;1.10;;;;;;;;;;2079574;28;20057;-76
2023/11/12 07:13:50;;;;;;;1.00;1.00;;;;;;;;;;2079335;28;20543;-76
2023/11/12 07:15:09;;;;;;;3.00;1.08;;;;;;;;;;2079452;28;20025;-76
2023/11/12 07:16:28;;;;;;;1.58;1.00;;;;;;;;;;2079325;28;20094;-77
2023/11/12 07:17:48;;;;;;;2.95;1.20;;;;;;;;;;2087513;28;20029;-76
2023/11/12 07:19:07;;;;;;;1.20;1.10;;;;;;;;;;2086294;28;20018;-75
2023/11/12 07:20:32;;;;;;;2.30;1.00;;;;;;;;;;2086202;28;20018;-78
2023/11/12 07:21:51;;;;;;;1.27;1.17;;;;;;;;;;2083118;28;20033;-76
2023/11/12 07:23:11;;;;;;;1.27;1.17;;;;;;;;;;2084430;28;20026;-75
2023/11/12 07:24:30;;;;;;;2.05;1.08;;;;;;;;;;2082895;28;20108;-75
2023/11/12 07:25:49;;;;;;;4.85;1.35;;;;;;;;;;2084871;28;20057;-76
2023/11/12 07:27:08;;;;;;;2.05;1.00;;;;;;;;;;2077927;28;20021;-77
2023/11/12 07:28:28;;;;;;;2.80;1.00;;;;;;;;;;2079485;28;20033;-76
2023/11/12 07:29:47;;;;;;;0.80;0.70;;;;;;;;;;2080812;28;20128;-75
2023/11/12 07:31:06;;;;;;;1.33;0.80;;;;;;;;;;2079933;28;20029;-76
2023/11/12 07:32:25;;;;;;;0.82;0.70;;;;;;;;;;2074731;28;20034;-76
2023/11/12 07:33:44;;;;;;;0.70;0.70;;;;;;;;;;2078178;28;20033;-76
2023/11/12 07:35:04;;;;;;;1.27;0.85;;;;;;;;;;2075143;28;20025;-76
2023/11/12 07:36:24;;;;;;;1.55;1.10;;;;;;;;;;2075515;28;20582;-76
2023/11/12 07:37:43;;;;;;;0.85;0.82;;;;;;;;;;2084240;28;20037;-76
2023/11/12 07:39:02;;;;;;;0.75;0.75;;;;;;;;;;2082127;28;20037;-75
2023/11/12 07:40:23;;;;;;;2.63;0.70;;;;;;;;;;2087507;28;20025;-76
2023/11/12 07:41:41;;;;;;;1.13;0.90;;;;;;;;;;2082301;28;20029;-76
2023/11/12 07:43:00;;;;;;;3.08;1.13;;;;;;;;;;2079127;28;20053;-76
2023/11/12 07:44:19;;;;;;;0.80;0.80;;;;;;;;;;2078273;28;20029;-77
2023/11/12 07:45:38;;;;;;;3.00;0.90;;;;;;;;;;2078269;28;20511;-76
2023/11/12 07:46:57;;;;;;;2.33;1.00;;;;;;;;;;2077875;28;20033;-75
2023/11/12 07:48:17;;;;;;;1.38;0.80;;;;;;;;;;2080973;28;20025;-75
2023/11/12 07:49:36;;;;;;;0.90;0.90;;;;;;;;;;2078884;28;20030;-75
2023/11/12 07:50:59;;;;;;;2.50;1.00;;;;;;;;;;2070657;28;20038;-75
2023/11/12 07:52:18;;;;;;;1.33;0.73;;;;;;;;;;2075416;28;20033;-75
2023/11/12 07:53:36;;;;;;;3.05;1.42;;;;;;;;;;2078310;28;20030;-75
2023/11/12 07:54:55;;;;;;;0.82;0.80;;;;;;;;;;2079133;28;20555;-76